sensor_id;sensor_type;location;lat;lon;timestamp;P1;durP1;ratioP1;P2;durP2;ratioP2
26774;SDS011;14362;51.902;7.626;2023-05-14T00:02:39;9.30;;;7.60;;
26774;SDS011;14362;51.902;7.626;2023-05-14T00:06:40;9.13;;;8.23;;
26774;SDS011;14362;51.902;7.626;2023-05-14T00:10:41;11.57;;;7.68;;
26774;SDS011;14362;51.902;7.626;2023-05-14T00:14:43;8.57;;;7.80;;
26774;SDS011;14362;51.902;7.626;2023-05-14T00:18:46;9.02;;;8.13;;
26774;SDS011;14362;51.902;7.626;2023-05-14T00:22:47;8.63;;;7.82;;
26774;SDS011;14362;51.902;7.626;2023-05-14T00:26:48;9.45;;;8.15;;
26774;SDS011;14362;51.902;7.626;2023-05-14T00:30:50;9.23;;;8.27;;
26774;SDS011;14362;51.902;7.626;2023-05-14T00:34:53;9.88;;;8.93;;
26774;SDS011;14362;51.902;7.626;2023-05-14T00:38:54;9.65;;;8.30;;
26774;SDS011;14362;51.902;7.626;2023-05-14T00:42:55;9.88;;;8.70;;
26774;SDS011;14362;51.902;7.626;2023-05-14T00:46:57;11.38;;;8.93;;
26774;SDS011;14362;51.902;7.626;2023-05-14T00:51:00;9.98;;;8.55;;
26774;SDS011;14362;51.902;7.626;2023-05-14T00:55:01;9.48;;;8.48;;
26774;SDS011;14362;51.902;7.626;2023-05-14T00:59:05;11.90;;;8.85;;
26774;SDS011;14362;51.902;7.626;2023-05-14T01:03:06;10.20;;;9.10;;
26774;SDS011;14362;51.902;7.626;2023-05-14T01:07:11;10.02;;;9.07;;
26774;SDS011;14362;51.902;7.626;2023-05-14T01:11:25;9.30;;;8.40;;
26774;SDS011;14362;51.902;7.626;2023-05-14T01:15:30;12.63;;;9.65;;
26774;SDS011;14362;51.902;7.626;2023-05-14T01:19:36;10.88;;;9.57;;
26774;SDS011;14362;51.902;7.626;2023-05-14T01:23:41;11.20;;;10.00;;
26774;SDS011;14362;51.902;7.626;2023-05-14T01:27:44;11.57;;;9.85;;
26774;SDS011;14362;51.902;7.626;2023-05-14T01:31:52;13.20;;;9.68;;
26774;SDS011;14362;51.902;7.626;2023-05-14T01:35:57;11.30;;;9.07;;
26774;SDS011;14362;51.902;7.626;2023-05-14T01:40:00;13.25;;;10.70;;
26774;SDS011;14362;51.902;7.626;2023-05-14T01:44:02;10.48;;;9.23;;
26774;SDS011;14362;51.902;7.626;2023-05-14T01:48:04;12.20;;;10.65;;
26774;SDS011;14362;51.902;7.626;2023-05-14T01:52:06;15.63;;;12.38;;
26774;SDS011;14362;51.902;7.626;2023-05-14T01:56:09;13.63;;;12.13;;
26774;SDS011;14362;51.902;7.626;2023-05-14T02:00:11;13.38;;;11.88;;
26774;SDS011;14362;51.902;7.626;2023-05-14T02:04:12;13.45;;;11.20;;
26774;SDS011;14362;51.902;7.626;2023-05-14T02:08:14;16.20;;;10.98;;
26774;SDS011;14362;51.902;7.626;2023-05-14T02:12:17;11.30;;;10.20;;
26774;SDS011;14362;51.902;7.626;2023-05-14T02:16:18;10.77;;;9.68;;
26774;SDS011;14362;51.902;7.626;2023-05-14T02:20:19;11.10;;;10.00;;
26774;SDS011;14362;51.902;7.626;2023-05-14T02:24:21;11.68;;;10.48;;
26774;SDS011;14362;51.902;7.626;2023-05-14T02:28:24;11.88;;;10.55;;
26774;SDS011;14362;51.902;7.626;2023-05-14T02:32:25;12.40;;;10.75;;
26774;SDS011;14362;51.902;7.626;2023-05-14T02:36:27;12.00;;;10.63;;
26774;SDS011;14362;51.902;7.626;2023-05-14T02:40:28;11.88;;;10.38;;
26774;SDS011;14362;51.902;7.626;2023-05-14T02:44:31;11.38;;;10.18;;
26774;SDS011;14362;51.902;7.626;2023-05-14T02:48:32;11.50;;;10.30;;
26774;SDS011;14362;51.902;7.626;2023-05-14T02:52:33;12.73;;;11.00;;
26774;SDS011;14362;51.902;7.626;2023-05-14T02:56:35;11.80;;;10.60;;
26774;SDS011;14362;51.902;7.626;2023-05-14T03:00:38;14.68;;;11.38;;
26774;SDS011;14362;51.902;7.626;2023-05-14T03:04:39;12.45;;;11.20;;
26774;SDS011;14362;51.902;7.626;2023-05-14T03:08:40;11.30;;;10.10;;
26774;SDS011;14362;51.902;7.626;2023-05-14T03:12:42;12.88;;;11.05;;
26774;SDS011;14362;51.902;7.626;2023-05-14T03:16:44;12.20;;;10.25;;
26774;SDS011;14362;51.902;7.626;2023-05-14T03:20:46;13.70;;;10.73;;
26774;SDS011;14362;51.902;7.626;2023-05-14T03:24:48;13.02;;;11.07;;
26774;SDS011;14362;51.902;7.626;2023-05-14T03:28:49;11.75;;;10.55;;
26774;SDS011;14362;51.902;7.626;2023-05-14T03:32:52;11.48;;;10.27;;
26774;SDS011;14362;51.902;7.626;2023-05-14T03:36:54;12.73;;;10.55;;
26774;SDS011;14362;51.902;7.626;2023-05-14T03:40:55;12.77;;;11.40;;
26774;SDS011;14362;51.902;7.626;2023-05-14T03:44:58;14.45;;;10.93;;
26774;SDS011;14362;51.902;7.626;2023-05-14T03:49:00;12.80;;;10.75;;
26774;SDS011;14362;51.902;7.626;2023-05-14T03:53:02;14.40;;;11.68;;
26774;SDS011;14362;51.902;7.626;2023-05-14T03:57:03;15.15;;;12.38;;
26774;SDS011;14362;51.902;7.626;2023-05-14T04:01:05;17.42;;;11.45;;
26774;SDS011;14362;51.902;7.626;2023-05-14T04:05:08;17.85;;;12.00;;
26774;SDS011;14362;51.902;7.626;2023-05-14T04:09:09;14.40;;;12.27;;
26774;SDS011;14362;51.902;7.626;2023-05-14T04:13:11;15.45;;;12.43;;
26774;SDS011;14362;51.902;7.626;2023-05-14T04:17:13;14.27;;;11.98;;
26774;SDS011;14362;51.902;7.626;2023-05-14T04:21:16;14.00;;;11.60;;
26774;SDS011;14362;51.902;7.626;2023-05-14T04:25:17;15.43;;;12.38;;
26774;SDS011;14362;51.902;7.626;2023-05-14T04:29:19;12.38;;;11.05;;
26774;SDS011;14362;51.902;7.626;2023-05-14T04:33:20;13.30;;;11.82;;
26774;SDS011;14362;51.902;7.626;2023-05-14T04:37:23;13.18;;;11.68;;
26774;SDS011;14362;51.902;7.626;2023-05-14T04:41:25;20.27;;;13.65;;
26774;SDS011;14362;51.902;7.626;2023-05-14T04:45:26;19.95;;;13.00;;
26774;SDS011;14362;51.902;7.626;2023-05-14T04:49:27;12.93;;;11.65;;
26774;SDS011;14362;51.902;7.626;2023-05-14T04:53:31;13.52;;;12.13;;
26774;SDS011;14362;51.902;7.626;2023-05-14T04:57:32;18.00;;;12.93;;
26774;SDS011;14362;51.902;7.626;2023-05-14T05:01:34;12.80;;;11.48;;
26774;SDS011;14362;51.902;7.626;2023-05-14T05:05:35;14.40;;;12.95;;
26774;SDS011;14362;51.902;7.626;2023-05-14T05:09:38;13.75;;;12.35;;
26774;SDS011;14362;51.902;7.626;2023-05-14T05:13:39;15.25;;;12.48;;
26774;SDS011;14362;51.902;7.626;2023-05-14T05:17:41;13.60;;;12.00;;
26774;SDS011;14362;51.902;7.626;2023-05-14T05:21:42;12.98;;;11.50;;
26774;SDS011;14362;51.902;7.626;2023-05-14T05:25:45;13.30;;;12.10;;
26774;SDS011;14362;51.902;7.626;2023-05-14T05:29:46;12.45;;;10.95;;
26774;SDS011;14362;51.902;7.626;2023-05-14T05:33:47;12.73;;;11.43;;
26774;SDS011;14362;51.902;7.626;2023-05-14T05:37:49;13.05;;;11.07;;
26774;SDS011;14362;51.902;7.626;2023-05-14T05:41:52;10.93;;;9.82;;
26774;SDS011;14362;51.902;7.626;2023-05-14T05:45:54;9.70;;;8.70;;
26774;SDS011;14362;51.902;7.626;2023-05-14T05:49:55;11.60;;;9.27;;
26774;SDS011;14362;51.902;7.626;2023-05-14T05:53:57;9.90;;;9.00;;
26774;SDS011;14362;51.902;7.626;2023-05-14T05:57:59;8.73;;;7.93;;
26774;SDS011;14362;51.902;7.626;2023-05-14T06:02:01;10.18;;;8.52;;
26774;SDS011;14362;51.902;7.626;2023-05-14T06:06:02;8.65;;;7.82;;
26774;SDS011;14362;51.902;7.626;2023-05-14T06:10:04;9.43;;;8.63;;
26774;SDS011;14362;51.902;7.626;2023-05-14T06:14:08;9.10;;;8.20;;
26774;SDS011;14362;51.902;7.626;2023-05-14T06:18:09;9.70;;;8.80;;
26774;SDS011;14362;51.902;7.626;2023-05-14T06:22:11;9.55;;;8.57;;
26774;SDS011;14362;51.902;7.626;2023-05-14T06:26:13;8.23;;;7.53;;
26774;SDS011;14362;51.902;7.626;2023-05-14T06:30:16;9.02;;;8.18;;
26774;SDS011;14362;51.902;7.626;2023-05-14T06:34:17;8.75;;;7.85;;
26774;SDS011;14362;51.902;7.626;2023-05-14T06:38:19;7.93;;;7.22;;
26774;SDS011;14362;51.902;7.626;2023-05-14T06:42:20;8.45;;;7.75;;
26774;SDS011;14362;51.902;7.626;2023-05-14T06:46:23;8.43;;;7.13;;
26774;SDS011;14362;51.902;7.626;2023-05-14T06:50:24;9.00;;;7.63;;
26774;SDS011;14362;51.902;7.626;2023-05-14T06:54:26;8.05;;;7.35;;
26774;SDS011;14362;51.902;7.626;2023-05-14T06:58:27;7.43;;;6.60;;
26774;SDS011;14362;51.902;7.626;2023-05-14T07:02:30;8.05;;;6.45;;
26774;SDS011;14362;51.902;7.626;2023-05-14T07:06:31;7.25;;;6.57;;
26774;SDS011;14362;51.902;7.626;2023-05-14T07:10:33;6.28;;;5.72;;
26774;SDS011;14362;51.902;7.626;2023-05-14T07:14:34;7.35;;;6.65;;
26774;SDS011;14362;51.902;7.626;2023-05-14T07:18:37;7.95;;;6.22;;
26774;SDS011;14362;51.902;7.626;2023-05-14T07:22:39;6.50;;;5.90;;
26774;SDS011;14362;51.902;7.626;2023-05-14T07:26:40;5.70;;;5.30;;
26774;SDS011;14362;51.902;7.626;2023-05-14T07:30:42;6.45;;;5.85;;
26774;SDS011;14362;51.902;7.626;2023-05-14T07:34:47;6.47;;;5.72;;
26774;SDS011;14362;51.902;7.626;2023-05-14T07:38:48;5.18;;;4.78;;
26774;SDS011;14362;51.902;7.626;2023-05-14T07:42:49;5.30;;;4.80;;
26774;SDS011;14362;51.902;7.626;2023-05-14T07:46:51;5.07;;;4.68;;
26774;SDS011;14362;51.902;7.626;2023-05-14T07:50:54;4.60;;;4.28;;
26774;SDS011;14362;51.902;7.626;2023-05-14T07:54:55;6.10;;;4.72;;
26774;SDS011;14362;51.902;7.626;2023-05-14T07:58:56;5.25;;;4.75;;
26774;SDS011;14362;51.902;7.626;2023-05-14T08:02:58;5.05;;;4.60;;
26774;SDS011;14362;51.902;7.626;2023-05-14T08:07:00;4.50;;;4.10;;
26774;SDS011;14362;51.902;7.626;2023-05-14T08:11:02;4.53;;;4.13;;
26774;SDS011;14362;51.902;7.626;2023-05-14T08:15:04;3.65;;;3.15;;
26774;SDS011;14362;51.902;7.626;2023-05-14T08:19:07;5.13;;;3.60;;
26774;SDS011;14362;51.902;7.626;2023-05-14T08:23:09;4.00;;;3.60;;
26774;SDS011;14362;51.902;7.626;2023-05-14T08:27:11;3.80;;;3.15;;
26774;SDS011;14362;51.902;7.626;2023-05-14T08:31:12;3.42;;;3.13;;
26774;SDS011;14362;51.902;7.626;2023-05-14T08:35:14;3.35;;;3.05;;
26774;SDS011;14362;51.902;7.626;2023-05-14T08:39:16;3.05;;;2.75;;
26774;SDS011;14362;51.902;7.626;2023-05-14T08:43:18;2.80;;;2.60;;
26774;SDS011;14362;51.902;7.626;2023-05-14T08:47:25;2.65;;;2.45;;
26774;SDS011;14362;51.902;7.626;2023-05-14T08:51:29;3.10;;;2.80;;
26774;SDS011;14362;51.902;7.626;2023-05-14T08:55:32;2.70;;;2.50;;
26774;SDS011;14362;51.902;7.626;2023-05-14T08:59:34;4.07;;;2.65;;
26774;SDS011;14362;51.902;7.626;2023-05-14T09:03:35;2.65;;;2.45;;
26774;SDS011;14362;51.902;7.626;2023-05-14T09:07:37;2.63;;;2.42;;
26774;SDS011;14362;51.902;7.626;2023-05-14T09:11:44;2.65;;;2.45;;
26774;SDS011;14362;51.902;7.626;2023-05-14T09:15:46;2.33;;;2.13;;
26774;SDS011;14362;51.902;7.626;2023-05-14T09:19:50;3.43;;;2.20;;
26774;SDS011;14362;51.902;7.626;2023-05-14T09:23:52;3.65;;;2.45;;
26774;SDS011;14362;51.902;7.626;2023-05-14T09:27:55;2.40;;;2.00;;
26774;SDS011;14362;51.902;7.626;2023-05-14T09:31:58;1.90;;;1.80;;
26774;SDS011;14362;51.902;7.626;2023-05-14T09:36:03;2.28;;;2.08;;
26774;SDS011;14362;51.902;7.626;2023-05-14T09:40:05;2.65;;;2.45;;
26774;SDS011;14362;51.902;7.626;2023-05-14T09:44:09;2.45;;;2.08;;
26774;SDS011;14362;51.902;7.626;2023-05-14T09:48:10;2.28;;;2.08;;
26774;SDS011;14362;51.902;7.626;2023-05-14T09:52:12;2.13;;;1.92;;
26774;SDS011;14362;51.902;7.626;2023-05-14T09:56:14;4.18;;;2.22;;
26774;SDS011;14362;51.902;7.626;2023-05-14T10:00:17;2.50;;;2.22;;
26774;SDS011;14362;51.902;7.626;2023-05-14T10:04:19;2.57;;;2.37;;
26774;SDS011;14362;51.902;7.626;2023-05-14T10:08:23;1.90;;;1.80;;
26774;SDS011;14362;51.902;7.626;2023-05-14T10:12:27;2.17;;;1.95;;
26774;SDS011;14362;51.902;7.626;2023-05-14T10:16:34;2.28;;;2.10;;
26774;SDS011;14362;51.902;7.626;2023-05-14T10:20:38;2.33;;;2.13;;
26774;SDS011;14362;51.902;7.626;2023-05-14T10:24:40;3.13;;;2.45;;
26774;SDS011;14362;51.902;7.626;2023-05-14T10:28:42;3.22;;;2.15;;
26774;SDS011;14362;51.902;7.626;2023-05-14T10:32:45;3.90;;;2.35;;
26774;SDS011;14362;51.902;7.626;2023-05-14T10:36:47;2.50;;;2.30;;
26774;SDS011;14362;51.902;7.626;2023-05-14T10:40:48;2.17;;;1.80;;
26774;SDS011;14362;51.902;7.626;2023-05-14T10:44:51;2.97;;;1.80;;
26774;SDS011;14362;51.902;7.626;2023-05-14T10:48:55;2.15;;;1.95;;
26774;SDS011;14362;51.902;7.626;2023-05-14T10:52:57;2.20;;;2.00;;
26774;SDS011;14362;51.902;7.626;2023-05-14T10:56:58;2.55;;;2.10;;
26774;SDS011;14362;51.902;7.626;2023-05-14T11:01:00;3.25;;;1.90;;
26774;SDS011;14362;51.902;7.626;2023-05-14T11:05:04;2.30;;;2.10;;
26774;SDS011;14362;51.902;7.626;2023-05-14T11:09:08;2.17;;;2.00;;
26774;SDS011;14362;51.902;7.626;2023-05-14T11:13:10;2.22;;;2.05;;
26774;SDS011;14362;51.902;7.626;2023-05-14T11:17:11;2.95;;;2.28;;
26774;SDS011;14362;51.902;7.626;2023-05-14T11:21:14;2.45;;;2.25;;
26774;SDS011;14362;51.902;7.626;2023-05-14T11:25:17;2.92;;;1.77;;
26774;SDS011;14362;51.902;7.626;2023-05-14T11:29:20;2.60;;;2.40;;
26774;SDS011;14362;51.902;7.626;2023-05-14T11:33:22;2.90;;;1.92;;
26774;SDS011;14362;51.902;7.626;2023-05-14T11:37:24;2.17;;;2.00;;
26774;SDS011;14362;51.902;7.626;2023-05-14T11:41:26;2.50;;;2.30;;
26774;SDS011;14362;51.902;7.626;2023-05-14T11:45:30;2.80;;;2.50;;
26774;SDS011;14362;51.902;7.626;2023-05-14T11:49:32;2.25;;;2.00;;
26774;SDS011;14362;51.902;7.626;2023-05-14T11:53:37;2.08;;;1.88;;
26774;SDS011;14362;51.902;7.626;2023-05-14T11:57:39;5.10;;;2.42;;
26774;SDS011;14362;51.902;7.626;2023-05-14T12:01:40;3.28;;;2.92;;
26774;SDS011;14362;51.902;7.626;2023-05-14T12:05:53;3.50;;;2.22;;
26774;SDS011;14362;51.902;7.626;2023-05-14T12:09:59;4.50;;;2.67;;
26774;SDS011;14362;51.902;7.626;2023-05-14T12:14:09;2.40;;;2.25;;
26774;SDS011;14362;51.902;7.626;2023-05-14T12:18:11;2.30;;;2.10;;
26774;SDS011;14362;51.902;7.626;2023-05-14T12:22:13;2.60;;;2.40;;
26774;SDS011;14362;51.902;7.626;2023-05-14T12:26:18;2.70;;;2.50;;
26774;SDS011;14362;51.902;7.626;2023-05-14T12:30:20;2.60;;;2.40;;
26774;SDS011;14362;51.902;7.626;2023-05-14T12:34:21;4.40;;;4.00;;
26774;SDS011;14362;51.902;7.626;2023-05-14T12:38:23;3.10;;;2.67;;
26774;SDS011;14362;51.902;7.626;2023-05-14T12:42:25;2.67;;;2.47;;
26774;SDS011;14362;51.902;7.626;2023-05-14T12:46:27;3.25;;;2.65;;
26774;SDS011;14362;51.902;7.626;2023-05-14T12:50:28;2.75;;;2.47;;
26774;SDS011;14362;51.902;7.626;2023-05-14T12:54:30;3.80;;;2.28;;
26774;SDS011;14362;51.902;7.626;2023-05-14T12:58:33;3.20;;;2.40;;
26774;SDS011;14362;51.902;7.626;2023-05-14T13:02:34;2.30;;;2.10;;
26774;SDS011;14362;51.902;7.626;2023-05-14T13:06:36;2.20;;;2.00;;
26774;SDS011;14362;51.902;7.626;2023-05-14T13:10:38;2.60;;;2.40;;
26774;SDS011;14362;51.902;7.626;2023-05-14T13:14:41;2.10;;;2.00;;
26774;SDS011;14362;51.902;7.626;2023-05-14T13:18:42;2.63;;;2.42;;
26774;SDS011;14362;51.902;7.626;2023-05-14T13:22:43;2.40;;;2.20;;
26774;SDS011;14362;51.902;7.626;2023-05-14T13:26:45;3.03;;;2.60;;
26774;SDS011;14362;51.902;7.626;2023-05-14T13:35:18;2.90;;;2.45;;
26774;SDS011;14362;51.902;7.626;2023-05-14T13:39:22;2.80;;;2.40;;
26774;SDS011;14362;51.902;7.626;2023-05-14T13:43:26;2.55;;;2.35;;
26774;SDS011;14362;51.902;7.626;2023-05-14T13:47:27;2.58;;;2.35;;
26774;SDS011;14362;51.902;7.626;2023-05-14T13:51:30;3.63;;;2.17;;
26774;SDS011;14362;51.902;7.626;2023-05-14T13:55:31;2.30;;;2.10;;
26774;SDS011;14362;51.902;7.626;2023-05-14T13:59:34;2.45;;;2.25;;
26774;SDS011;14362;51.902;7.626;2023-05-14T14:03:35;2.47;;;2.00;;
26774;SDS011;14362;51.902;7.626;2023-05-14T14:07:38;2.35;;;2.15;;
26774;SDS011;14362;51.902;7.626;2023-05-14T14:11:39;2.30;;;2.10;;
26774;SDS011;14362;51.902;7.626;2023-05-14T14:15:41;3.67;;;2.40;;
26774;SDS011;14362;51.902;7.626;2023-05-14T14:19:43;3.20;;;2.33;;
26774;SDS011;14362;51.902;7.626;2023-05-14T14:23:46;2.03;;;1.90;;
26774;SDS011;14362;51.902;7.626;2023-05-14T14:27:47;2.40;;;2.20;;
26774;SDS011;14362;51.902;7.626;2023-05-14T14:31:50;2.22;;;2.13;;
26774;SDS011;14362;51.902;7.626;2023-05-14T14:35:51;3.00;;;2.10;;
26774;SDS011;14362;51.902;7.626;2023-05-14T14:39:54;2.10;;;1.90;;
26774;SDS011;14362;51.902;7.626;2023-05-14T14:43:55;2.22;;;2.03;;
26774;SDS011;14362;51.902;7.626;2023-05-14T14:52:25;3.50;;;2.13;;
26774;SDS011;14362;51.902;7.626;2023-05-14T14:56:28;2.28;;;2.08;;
26774;SDS011;14362;51.902;7.626;2023-05-14T15:00:30;3.08;;;1.88;;
26774;SDS011;14362;51.902;7.626;2023-05-14T15:04:32;2.00;;;1.83;;
26774;SDS011;14362;51.902;7.626;2023-05-14T15:08:33;2.50;;;1.80;;
26774;SDS011;14362;51.902;7.626;2023-05-14T15:12:36;2.22;;;2.00;;
26774;SDS011;14362;51.902;7.626;2023-05-14T15:16:38;2.97;;;2.22;;
26774;SDS011;14362;51.902;7.626;2023-05-14T15:20:39;2.28;;;2.00;;
26774;SDS011;14362;51.902;7.626;2023-05-14T15:24:41;2.25;;;2.05;;
26774;SDS011;14362;51.902;7.626;2023-05-14T15:28:44;3.08;;;1.95;;
26774;SDS011;14362;51.902;7.626;2023-05-14T15:32:45;3.80;;;2.67;;
26774;SDS011;14362;51.902;7.626;2023-05-14T15:36:46;2.50;;;2.30;;
26774;SDS011;14362;51.902;7.626;2023-05-14T15:40:48;1.50;;;1.40;;
26774;SDS011;14362;51.902;7.626;2023-05-14T15:44:51;2.40;;;1.60;;
26774;SDS011;14362;51.902;7.626;2023-05-14T15:48:52;2.03;;;1.65;;
26774;SDS011;14362;51.902;7.626;2023-05-14T15:52:54;3.33;;;2.03;;
26774;SDS011;14362;51.902;7.626;2023-05-14T15:56:55;2.03;;;1.80;;
26774;SDS011;14362;51.902;7.626;2023-05-14T16:00:58;2.40;;;1.67;;
26774;SDS011;14362;51.902;7.626;2023-05-14T16:05:00;2.33;;;1.95;;
26774;SDS011;14362;51.902;7.626;2023-05-14T16:09:01;2.05;;;1.63;;
26774;SDS011;14362;51.902;7.626;2023-05-14T16:13:04;2.78;;;2.33;;
26774;SDS011;14362;51.902;7.626;2023-05-14T16:17:06;2.17;;;2.00;;
26774;SDS011;14362;51.902;7.626;2023-05-14T16:21:08;2.65;;;1.95;;
26774;SDS011;14362;51.902;7.626;2023-05-14T16:25:09;2.88;;;2.22;;
26774;SDS011;14362;51.902;7.626;2023-05-14T16:29:11;2.33;;;2.13;;
26774;SDS011;14362;51.902;7.626;2023-05-14T16:33:14;3.30;;;2.10;;
26774;SDS011;14362;51.902;7.626;2023-05-14T16:37:15;2.55;;;2.35;;
26774;SDS011;14362;51.902;7.626;2023-05-14T16:41:18;2.28;;;2.08;;
26774;SDS011;14362;51.902;7.626;2023-05-14T16:45:20;2.42;;;2.20;;
26774;SDS011;14362;51.902;7.626;2023-05-14T16:49:23;3.10;;;2.15;;
26774;SDS011;14362;51.902;7.626;2023-05-14T16:53:24;2.22;;;1.92;;
26774;SDS011;14362;51.902;7.626;2023-05-14T16:57:26;2.40;;;2.10;;
26774;SDS011;14362;51.902;7.626;2023-05-14T17:01:27;1.80;;;1.70;;
26774;SDS011;14362;51.902;7.626;2023-05-14T17:05:30;3.33;;;1.88;;
26774;SDS011;14362;51.902;7.626;2023-05-14T17:09:31;2.10;;;1.80;;
26774;SDS011;14362;51.902;7.626;2023-05-14T17:13:33;7.32;;;2.90;;
26774;SDS011;14362;51.902;7.626;2023-05-14T17:17:35;4.90;;;2.03;;
26774;SDS011;14362;51.902;7.626;2023-05-14T17:21:38;2.20;;;1.88;;
26774;SDS011;14362;51.902;7.626;2023-05-14T17:25:39;3.45;;;2.05;;
26774;SDS011;14362;51.902;7.626;2023-05-14T17:29:40;4.28;;;2.70;;
26774;SDS011;14362;51.902;7.626;2023-05-14T17:33:43;2.50;;;2.30;;
26774;SDS011;14362;51.902;7.626;2023-05-14T17:37:46;2.53;;;2.33;;
26774;SDS011;14362;51.902;7.626;2023-05-14T17:41:47;3.08;;;2.78;;
26774;SDS011;14362;51.902;7.626;2023-05-14T17:45:49;3.17;;;2.58;;
26774;SDS011;14362;51.902;7.626;2023-05-14T17:49:50;2.78;;;2.58;;
26774;SDS011;14362;51.902;7.626;2023-05-14T17:53:53;2.45;;;2.25;;
26774;SDS011;14362;51.902;7.626;2023-05-14T17:57:55;3.63;;;2.50;;
26774;SDS011;14362;51.902;7.626;2023-05-14T18:01:56;3.63;;;2.55;;
26774;SDS011;14362;51.902;7.626;2023-05-14T18:05:58;3.30;;;2.70;;
26774;SDS011;14362;51.902;7.626;2023-05-14T18:10:01;3.88;;;2.58;;
26774;SDS011;14362;51.902;7.626;2023-05-14T18:14:02;3.95;;;2.70;;
26774;SDS011;14362;51.902;7.626;2023-05-14T18:18:04;3.53;;;3.05;;
26774;SDS011;14362;51.902;7.626;2023-05-14T18:22:05;3.92;;;3.13;;
26774;SDS011;14362;51.902;7.626;2023-05-14T18:26:09;3.20;;;2.90;;
26774;SDS011;14362;51.902;7.626;2023-05-14T18:30:10;2.90;;;2.60;;
26774;SDS011;14362;51.902;7.626;2023-05-14T18:34:13;3.75;;;3.13;;
26774;SDS011;14362;51.902;7.626;2023-05-14T18:38:15;3.42;;;3.17;;
26774;SDS011;14362;51.902;7.626;2023-05-14T18:42:19;3.83;;;3.30;;
26774;SDS011;14362;51.902;7.626;2023-05-14T18:46:21;3.78;;;3.47;;
26774;SDS011;14362;51.902;7.626;2023-05-14T18:50:22;4.30;;;3.90;;
26774;SDS011;14362;51.902;7.626;2023-05-14T18:54:24;5.20;;;4.13;;
26774;SDS011;14362;51.902;7.626;2023-05-14T18:58:26;6.35;;;4.55;;
26774;SDS011;14362;51.902;7.626;2023-05-14T19:02:28;5.28;;;4.78;;
26774;SDS011;14362;51.902;7.626;2023-05-14T19:06:29;4.03;;;3.63;;
26774;SDS011;14362;51.902;7.626;2023-05-14T19:10:31;4.97;;;3.60;;
26774;SDS011;14362;51.902;7.626;2023-05-14T19:14:35;4.20;;;3.90;;
26774;SDS011;14362;51.902;7.626;2023-05-14T19:18:39;4.13;;;3.70;;
26774;SDS011;14362;51.902;7.626;2023-05-14T19:22:41;4.75;;;3.90;;
26774;SDS011;14362;51.902;7.626;2023-05-14T19:26:43;3.88;;;3.40;;
26774;SDS011;14362;51.902;7.626;2023-05-14T19:30:46;4.22;;;3.83;;
26774;SDS011;14362;51.902;7.626;2023-05-14T19:34:49;4.22;;;3.88;;
26774;SDS011;14362;51.902;7.626;2023-05-14T19:38:51;5.32;;;3.90;;
26774;SDS011;14362;51.902;7.626;2023-05-14T19:42:52;4.20;;;3.58;;
26774;SDS011;14362;51.902;7.626;2023-05-14T19:46:55;3.60;;;3.30;;
26774;SDS011;14362;51.902;7.626;2023-05-14T19:50:56;4.53;;;3.58;;
26774;SDS011;14362;51.902;7.626;2023-05-14T19:54:58;4.45;;;4.05;;
26774;SDS011;14362;51.902;7.626;2023-05-14T19:58:59;4.30;;;3.90;;
26774;SDS011;14362;51.902;7.626;2023-05-14T20:03:02;4.97;;;4.50;;
26774;SDS011;14362;51.902;7.626;2023-05-14T20:07:04;4.80;;;4.40;;
26774;SDS011;14362;51.902;7.626;2023-05-14T20:11:05;5.75;;;4.45;;
26774;SDS011;14362;51.902;7.626;2023-05-14T20:15:07;5.50;;;5.00;;
26774;SDS011;14362;51.902;7.626;2023-05-14T20:19:10;5.22;;;4.75;;
26774;SDS011;14362;51.902;7.626;2023-05-14T20:23:12;6.93;;;5.10;;
26774;SDS011;14362;51.902;7.626;2023-05-14T20:27:14;5.85;;;4.95;;
26774;SDS011;14362;51.902;7.626;2023-05-14T20:31:15;8.00;;;5.50;;
26774;SDS011;14362;51.902;7.626;2023-05-14T20:35:18;6.32;;;5.55;;
26774;SDS011;14362;51.902;7.626;2023-05-14T20:39:20;7.38;;;6.40;;
26774;SDS011;14362;51.902;7.626;2023-05-14T20:43:21;6.53;;;5.93;;
26774;SDS011;14362;51.902;7.626;2023-05-14T20:47:24;7.07;;;6.30;;
26774;SDS011;14362;51.902;7.626;2023-05-14T20:51:29;7.03;;;6.32;;
26774;SDS011;14362;51.902;7.626;2023-05-14T20:55:31;6.60;;;6.00;;
26774;SDS011;14362;51.902;7.626;2023-05-14T20:59:33;5.97;;;5.43;;
26774;SDS011;14362;51.902;7.626;2023-05-14T21:03:34;6.50;;;5.68;;
26774;SDS011;14362;51.902;7.626;2023-05-14T21:07:37;6.10;;;5.57;;
26774;SDS011;14362;51.902;7.626;2023-05-14T21:11:38;8.25;;;5.05;;
26774;SDS011;14362;51.902;7.626;2023-05-14T21:15:40;6.28;;;5.68;;
26774;SDS011;14362;51.902;7.626;2023-05-14T21:19:41;6.90;;;6.30;;
26774;SDS011;14362;51.902;7.626;2023-05-14T21:23:44;7.03;;;6.40;;
26774;SDS011;14362;51.902;7.626;2023-05-14T21:27:45;6.35;;;5.70;;
26774;SDS011;14362;51.902;7.626;2023-05-14T21:31:46;6.65;;;5.90;;
26774;SDS011;14362;51.902;7.626;2023-05-14T21:35:48;6.20;;;5.60;;
26774;SDS011;14362;51.902;7.626;2023-05-14T21:39:51;6.38;;;5.45;;
26774;SDS011;14362;51.902;7.626;2023-05-14T21:43:52;8.00;;;5.80;;
26774;SDS011;14362;51.902;7.626;2023-05-14T21:47:53;6.10;;;5.50;;
26774;SDS011;14362;51.902;7.626;2023-05-14T21:51:55;6.20;;;5.70;;
26774;SDS011;14362;51.902;7.626;2023-05-14T21:55:58;6.57;;;6.03;;
26774;SDS011;14362;51.902;7.626;2023-05-14T21:59:59;7.90;;;6.20;;
26774;SDS011;14362;51.902;7.626;2023-05-14T22:04:00;6.55;;;5.95;;
26774;SDS011;14362;51.902;7.626;2023-05-14T22:08:02;8.95;;;6.80;;
26774;SDS011;14362;51.902;7.626;2023-05-14T22:12:05;6.85;;;6.28;;
26774;SDS011;14362;51.902;7.626;2023-05-14T22:16:07;6.50;;;6.00;;
26774;SDS011;14362;51.902;7.626;2023-05-14T22:20:10;6.70;;;6.20;;
26774;SDS011;14362;51.902;7.626;2023-05-14T22:24:12;7.60;;;6.60;;
26774;SDS011;14362;51.902;7.626;2023-05-14T22:28:15;7.35;;;6.13;;
26774;SDS011;14362;51.902;7.626;2023-05-14T22:32:16;7.45;;;6.85;;
26774;SDS011;14362;51.902;7.626;2023-05-14T22:36:17;6.90;;;6.30;;
26774;SDS011;14362;51.902;7.626;2023-05-14T22:40:19;7.07;;;6.47;;
26774;SDS011;14362;51.902;7.626;2023-05-14T22:44:22;7.45;;;6.78;;
26774;SDS011;14362;51.902;7.626;2023-05-14T22:48:23;7.03;;;6.45;;
26774;SDS011;14362;51.902;7.626;2023-05-14T22:52:25;7.60;;;6.95;;
26774;SDS011;14362;51.902;7.626;2023-05-14T22:56:26;8.32;;;6.88;;
26774;SDS011;14362;51.902;7.626;2023-05-14T23:00:29;7.90;;;7.20;;
26774;SDS011;14362;51.902;7.626;2023-05-14T23:04:30;8.07;;;7.38;;
26774;SDS011;14362;51.902;7.626;2023-05-14T23:08:32;7.75;;;7.05;;
26774;SDS011;14362;51.902;7.626;2023-05-14T23:12:33;8.23;;;7.47;;
26774;SDS011;14362;51.902;7.626;2023-05-14T23:16:36;7.80;;;7.20;;
26774;SDS011;14362;51.902;7.626;2023-05-14T23:20:37;7.88;;;7.18;;
26774;SDS011;14362;51.902;7.626;2023-05-14T23:24:39;9.48;;;8.60;;
26774;SDS011;14362;51.902;7.626;2023-05-14T23:28:40;9.85;;;9.00;;
26774;SDS011;14362;51.902;7.626;2023-05-14T23:32:43;8.80;;;8.02;;
26774;SDS011;14362;51.902;7.626;2023-05-14T23:36:44;9.05;;;8.35;;
26774;SDS011;14362;51.902;7.626;2023-05-14T23:40:46;9.10;;;8.20;;
26774;SDS011;14362;51.902;7.626;2023-05-14T23:44:47;9.52;;;8.68;;
26774;SDS011;14362;51.902;7.626;2023-05-14T23:48:50;9.80;;;8.90;;
26774;SDS011;14362;51.902;7.626;2023-05-14T23:52:55;11.57;;;8.98;;
26774;SDS011;14362;51.902;7.626;2023-05-14T23:56:57;9.10;;;8.40;;
